sensor_id;sensor_type;location;lat;lon;timestamp;P1;durP1;ratioP1;P2;durP2;ratioP2
15271;SDS011;7737;51.578;7.268;2022-07-11T00:02:03;5.55;;;2.50;;
15271;SDS011;7737;51.578;7.268;2022-07-11T00:04:30;4.75;;;2.55;;
15271;SDS011;7737;51.578;7.268;2022-07-11T00:06:57;6.30;;;2.83;;
15271;SDS011;7737;51.578;7.268;2022-07-11T00:09:24;6.13;;;2.80;;
15271;SDS011;7737;51.578;7.268;2022-07-11T00:11:51;5.68;;;2.97;;
15271;SDS011;7737;51.578;7.268;2022-07-11T00:14:18;5.43;;;2.78;;
15271;SDS011;7737;51.578;7.268;2022-07-11T00:16:46;7.80;;;3.00;;
15271;SDS011;7737;51.578;7.268;2022-07-11T00:19:15;6.28;;;2.80;;
15271;SDS011;7737;51.578;7.268;2022-07-11T00:21:41;4.78;;;2.75;;
15271;SDS011;7737;51.578;7.268;2022-07-11T00:24:08;5.15;;;2.75;;
15271;SDS011;7737;51.578;7.268;2022-07-11T00:26:35;4.60;;;2.67;;
15271;SDS011;7737;51.578;7.268;2022-07-11T00:29:01;5.50;;;3.00;;
15271;SDS011;7737;51.578;7.268;2022-07-11T00:31:28;4.75;;;3.05;;
15271;SDS011;7737;51.578;7.268;2022-07-11T00:33:55;5.07;;;2.85;;
15271;SDS011;7737;51.578;7.268;2022-07-11T00:36:23;4.18;;;2.70;;
15271;SDS011;7737;51.578;7.268;2022-07-11T00:38:50;7.00;;;2.88;;
15271;SDS011;7737;51.578;7.268;2022-07-11T00:41:17;6.78;;;2.50;;
15271;SDS011;7737;51.578;7.268;2022-07-11T00:43:49;4.05;;;2.45;;
15271;SDS011;7737;51.578;7.268;2022-07-11T00:46:17;5.72;;;3.08;;
15271;SDS011;7737;51.578;7.268;2022-07-11T00:48:44;7.72;;;2.78;;
15271;SDS011;7737;51.578;7.268;2022-07-11T00:51:10;6.93;;;2.75;;
15271;SDS011;7737;51.578;7.268;2022-07-11T00:53:39;6.63;;;2.80;;
15271;SDS011;7737;51.578;7.268;2022-07-11T00:56:07;8.52;;;3.10;;
15271;SDS011;7737;51.578;7.268;2022-07-11T00:58:35;6.07;;;2.80;;
15271;SDS011;7737;51.578;7.268;2022-07-11T01:01:02;5.90;;;2.70;;
15271;SDS011;7737;51.578;7.268;2022-07-11T01:03:29;6.20;;;2.72;;
15271;SDS011;7737;51.578;7.268;2022-07-11T01:05:55;5.68;;;2.80;;
15271;SDS011;7737;51.578;7.268;2022-07-11T01:08:22;7.53;;;2.70;;
15271;SDS011;7737;51.578;7.268;2022-07-11T01:10:50;5.15;;;2.90;;
15271;SDS011;7737;51.578;7.268;2022-07-11T01:13:17;5.40;;;2.80;;
15271;SDS011;7737;51.578;7.268;2022-07-11T01:15:43;6.45;;;3.20;;
15271;SDS011;7737;51.578;7.268;2022-07-11T01:18:10;7.10;;;3.15;;
15271;SDS011;7737;51.578;7.268;2022-07-11T01:20:36;6.93;;;3.25;;
15271;SDS011;7737;51.578;7.268;2022-07-11T01:23:04;4.45;;;2.80;;
15271;SDS011;7737;51.578;7.268;2022-07-11T01:25:31;6.00;;;2.70;;
15271;SDS011;7737;51.578;7.268;2022-07-11T01:28:00;5.65;;;3.17;;
15271;SDS011;7737;51.578;7.268;2022-07-11T01:30:28;5.80;;;2.88;;
15271;SDS011;7737;51.578;7.268;2022-07-11T01:32:56;7.35;;;2.92;;
15271;SDS011;7737;51.578;7.268;2022-07-11T01:35:23;4.85;;;2.88;;
15271;SDS011;7737;51.578;7.268;2022-07-11T01:37:49;4.65;;;2.78;;
15271;SDS011;7737;51.578;7.268;2022-07-11T01:40:18;6.00;;;3.00;;
15271;SDS011;7737;51.578;7.268;2022-07-11T01:42:45;5.65;;;3.20;;
15271;SDS011;7737;51.578;7.268;2022-07-11T01:45:12;6.90;;;3.08;;
15271;SDS011;7737;51.578;7.268;2022-07-11T01:47:39;5.30;;;2.90;;
15271;SDS011;7737;51.578;7.268;2022-07-11T01:50:06;6.53;;;2.95;;
15271;SDS011;7737;51.578;7.268;2022-07-11T01:52:33;6.28;;;3.10;;
15271;SDS011;7737;51.578;7.268;2022-07-11T01:55:00;5.88;;;2.90;;
15271;SDS011;7737;51.578;7.268;2022-07-11T01:57:28;6.75;;;3.05;;
15271;SDS011;7737;51.578;7.268;2022-07-11T01:59:54;6.40;;;3.03;;
15271;SDS011;7737;51.578;7.268;2022-07-11T02:02:21;6.40;;;3.35;;
15271;SDS011;7737;51.578;7.268;2022-07-11T02:04:47;6.70;;;3.25;;
15271;SDS011;7737;51.578;7.268;2022-07-11T02:07:14;6.80;;;2.67;;
15271;SDS011;7737;51.578;7.268;2022-07-11T02:10:00;6.13;;;2.80;;
15271;SDS011;7737;51.578;7.268;2022-07-11T02:12:28;5.72;;;2.80;;
15271;SDS011;7737;51.578;7.268;2022-07-11T02:14:55;7.45;;;3.17;;
15271;SDS011;7737;51.578;7.268;2022-07-11T02:17:21;5.93;;;2.75;;
15271;SDS011;7737;51.578;7.268;2022-07-11T02:19:48;6.40;;;2.80;;
15271;SDS011;7737;51.578;7.268;2022-07-11T02:22:14;5.45;;;2.95;;
15271;SDS011;7737;51.578;7.268;2022-07-11T02:24:40;5.85;;;2.90;;
15271;SDS011;7737;51.578;7.268;2022-07-11T02:27:07;6.35;;;3.10;;
15271;SDS011;7737;51.578;7.268;2022-07-11T02:29:35;8.95;;;2.80;;
15271;SDS011;7737;51.578;7.268;2022-07-11T02:32:01;8.27;;;3.00;;
15271;SDS011;7737;51.578;7.268;2022-07-11T02:34:28;5.07;;;2.70;;
15271;SDS011;7737;51.578;7.268;2022-07-11T02:36:54;6.90;;;2.70;;
15271;SDS011;7737;51.578;7.268;2022-07-11T02:39:21;8.13;;;3.08;;
15271;SDS011;7737;51.578;7.268;2022-07-11T02:41:47;8.93;;;3.05;;
15271;SDS011;7737;51.578;7.268;2022-07-11T02:44:14;6.22;;;3.30;;
15271;SDS011;7737;51.578;7.268;2022-07-11T02:46:42;7.20;;;3.30;;
15271;SDS011;7737;51.578;7.268;2022-07-11T02:49:08;7.43;;;3.00;;
15271;SDS011;7737;51.578;7.268;2022-07-11T02:51:35;6.47;;;3.10;;
15271;SDS011;7737;51.578;7.268;2022-07-11T02:54:01;9.93;;;3.40;;
15271;SDS011;7737;51.578;7.268;2022-07-11T02:56:28;9.93;;;3.17;;
15271;SDS011;7737;51.578;7.268;2022-07-11T02:58:54;7.22;;;3.70;;
15271;SDS011;7737;51.578;7.268;2022-07-11T03:01:21;8.60;;;3.65;;
15271;SDS011;7737;51.578;7.268;2022-07-11T03:03:48;7.63;;;3.42;;
15271;SDS011;7737;51.578;7.268;2022-07-11T03:06:15;9.35;;;3.13;;
15271;SDS011;7737;51.578;7.268;2022-07-11T03:08:41;7.47;;;3.38;;
15271;SDS011;7737;51.578;7.268;2022-07-11T03:11:08;5.22;;;2.97;;
15271;SDS011;7737;51.578;7.268;2022-07-11T03:13:34;6.82;;;3.20;;
15271;SDS011;7737;51.578;7.268;2022-07-11T03:16:01;7.72;;;3.42;;
15271;SDS011;7737;51.578;7.268;2022-07-11T03:18:28;9.77;;;3.10;;
15271;SDS011;7737;51.578;7.268;2022-07-11T03:20:55;4.18;;;3.25;;
15271;SDS011;7737;51.578;7.268;2022-07-11T03:23:22;7.00;;;3.33;;
15271;SDS011;7737;51.578;7.268;2022-07-11T03:25:49;8.25;;;3.30;;
15271;SDS011;7737;51.578;7.268;2022-07-11T03:28:16;9.73;;;3.70;;
15271;SDS011;7737;51.578;7.268;2022-07-11T03:30:42;6.90;;;3.20;;
15271;SDS011;7737;51.578;7.268;2022-07-11T03:33:09;6.80;;;2.97;;
15271;SDS011;7737;51.578;7.268;2022-07-11T03:35:35;5.85;;;2.95;;
15271;SDS011;7737;51.578;7.268;2022-07-11T03:38:09;5.15;;;2.65;;
15271;SDS011;7737;51.578;7.268;2022-07-11T03:40:37;9.43;;;2.75;;
15271;SDS011;7737;51.578;7.268;2022-07-11T03:43:04;6.00;;;3.08;;
15271;SDS011;7737;51.578;7.268;2022-07-11T03:45:31;7.93;;;3.15;;
15271;SDS011;7737;51.578;7.268;2022-07-11T03:47:57;5.40;;;2.80;;
15271;SDS011;7737;51.578;7.268;2022-07-11T03:50:24;5.10;;;2.63;;
15271;SDS011;7737;51.578;7.268;2022-07-11T03:52:50;6.68;;;3.08;;
15271;SDS011;7737;51.578;7.268;2022-07-11T03:55:19;8.88;;;2.90;;
15271;SDS011;7737;51.578;7.268;2022-07-11T03:57:45;6.28;;;2.53;;
15271;SDS011;7737;51.578;7.268;2022-07-11T04:00:12;5.53;;;2.50;;
15271;SDS011;7737;51.578;7.268;2022-07-11T04:02:40;5.40;;;2.35;;
15271;SDS011;7737;51.578;7.268;2022-07-11T04:05:06;7.55;;;2.70;;
15271;SDS011;7737;51.578;7.268;2022-07-11T04:07:33;5.32;;;2.67;;
15271;SDS011;7737;51.578;7.268;2022-07-11T04:10:00;7.13;;;2.70;;
15271;SDS011;7737;51.578;7.268;2022-07-11T04:12:28;5.82;;;2.67;;
15271;SDS011;7737;51.578;7.268;2022-07-11T04:14:54;4.70;;;2.45;;
15271;SDS011;7737;51.578;7.268;2022-07-11T04:17:21;5.07;;;2.33;;
15271;SDS011;7737;51.578;7.268;2022-07-11T04:19:47;5.07;;;2.38;;
15271;SDS011;7737;51.578;7.268;2022-07-11T04:22:14;5.60;;;2.45;;
15271;SDS011;7737;51.578;7.268;2022-07-11T04:24:41;5.40;;;2.40;;
15271;SDS011;7737;51.578;7.268;2022-07-11T04:27:07;4.57;;;2.65;;
15271;SDS011;7737;51.578;7.268;2022-07-11T04:29:35;4.80;;;2.30;;
15271;SDS011;7737;51.578;7.268;2022-07-11T04:32:02;4.40;;;2.20;;
15271;SDS011;7737;51.578;7.268;2022-07-11T04:34:28;8.13;;;3.08;;
15271;SDS011;7737;51.578;7.268;2022-07-11T04:36:55;4.43;;;2.08;;
15271;SDS011;7737;51.578;7.268;2022-07-11T04:39:21;6.60;;;2.63;;
15271;SDS011;7737;51.578;7.268;2022-07-11T04:41:49;5.63;;;2.30;;
15271;SDS011;7737;51.578;7.268;2022-07-11T04:44:16;3.40;;;2.00;;
15271;SDS011;7737;51.578;7.268;2022-07-11T04:46:44;4.00;;;2.22;;
15271;SDS011;7737;51.578;7.268;2022-07-11T04:49:10;3.30;;;2.03;;
15271;SDS011;7737;51.578;7.268;2022-07-11T04:51:37;3.72;;;1.85;;
15271;SDS011;7737;51.578;7.268;2022-07-11T04:54:03;2.75;;;1.95;;
15271;SDS011;7737;51.578;7.268;2022-07-11T04:56:30;4.65;;;1.92;;
15271;SDS011;7737;51.578;7.268;2022-07-11T04:58:56;3.95;;;1.80;;
15271;SDS011;7737;51.578;7.268;2022-07-11T05:01:23;4.05;;;1.90;;
15271;SDS011;7737;51.578;7.268;2022-07-11T05:03:50;3.92;;;1.88;;
15271;SDS011;7737;51.578;7.268;2022-07-11T05:06:17;5.18;;;1.95;;
15271;SDS011;7737;51.578;7.268;2022-07-11T05:08:44;3.53;;;1.60;;
15271;SDS011;7737;51.578;7.268;2022-07-11T05:11:11;4.25;;;1.77;;
15271;SDS011;7737;51.578;7.268;2022-07-11T05:13:37;3.22;;;1.63;;
15271;SDS011;7737;51.578;7.268;2022-07-11T05:16:04;4.28;;;1.55;;
15271;SDS011;7737;51.578;7.268;2022-07-11T05:18:31;3.55;;;1.40;;
15271;SDS011;7737;51.578;7.268;2022-07-11T05:20:59;4.53;;;1.80;;
15271;SDS011;7737;51.578;7.268;2022-07-11T05:23:25;1.83;;;1.23;;
15271;SDS011;7737;51.578;7.268;2022-07-11T05:25:52;2.95;;;1.50;;
15271;SDS011;7737;51.578;7.268;2022-07-11T05:28:19;2.03;;;1.17;;
15271;SDS011;7737;51.578;7.268;2022-07-11T05:30:45;3.90;;;1.27;;
15271;SDS011;7737;51.578;7.268;2022-07-11T05:33:12;2.88;;;1.48;;
15271;SDS011;7737;51.578;7.268;2022-07-11T05:35:38;2.55;;;1.50;;
15271;SDS011;7737;51.578;7.268;2022-07-11T05:38:06;2.35;;;1.40;;
15271;SDS011;7737;51.578;7.268;2022-07-11T05:40:32;4.88;;;1.40;;
15271;SDS011;7737;51.578;7.268;2022-07-11T05:42:59;3.13;;;1.30;;
15271;SDS011;7737;51.578;7.268;2022-07-11T05:45:26;3.35;;;1.15;;
15271;SDS011;7737;51.578;7.268;2022-07-11T05:47:52;2.88;;;1.10;;
15271;SDS011;7737;51.578;7.268;2022-07-11T05:50:19;3.42;;;1.20;;
15271;SDS011;7737;51.578;7.268;2022-07-11T05:52:45;1.88;;;0.88;;
15271;SDS011;7737;51.578;7.268;2022-07-11T05:55:13;0.75;;;0.60;;
15271;SDS011;7737;51.578;7.268;2022-07-11T05:57:40;0.85;;;0.50;;
15271;SDS011;7737;51.578;7.268;2022-07-11T06:00:07;0.70;;;0.40;;
15271;SDS011;7737;51.578;7.268;2022-07-11T06:02:34;0.47;;;0.40;;
15271;SDS011;7737;51.578;7.268;2022-07-11T06:05:00;2.17;;;0.75;;
15271;SDS011;7737;51.578;7.268;2022-07-11T06:07:27;2.17;;;0.70;;
15271;SDS011;7737;51.578;7.268;2022-07-11T06:10:11;3.42;;;0.80;;
15271;SDS011;7737;51.578;7.268;2022-07-11T06:12:39;1.30;;;0.70;;
15271;SDS011;7737;51.578;7.268;2022-07-11T06:15:07;2.78;;;1.05;;
15271;SDS011;7737;51.578;7.268;2022-07-11T06:17:33;1.13;;;0.60;;
15271;SDS011;7737;51.578;7.268;2022-07-11T06:20:00;1.23;;;0.70;;
15271;SDS011;7737;51.578;7.268;2022-07-11T06:22:27;1.30;;;0.57;;
15271;SDS011;7737;51.578;7.268;2022-07-11T06:24:53;3.22;;;0.82;;
15271;SDS011;7737;51.578;7.268;2022-07-11T06:27:20;1.83;;;0.60;;
15271;SDS011;7737;51.578;7.268;2022-07-11T06:29:48;1.25;;;0.50;;
15271;SDS011;7737;51.578;7.268;2022-07-11T06:32:14;1.60;;;0.73;;
15271;SDS011;7737;51.578;7.268;2022-07-11T06:34:41;0.68;;;0.57;;
15271;SDS011;7737;51.578;7.268;2022-07-11T06:37:08;1.02;;;0.60;;
15271;SDS011;7737;51.578;7.268;2022-07-11T06:39:34;1.27;;;0.52;;
15271;SDS011;7737;51.578;7.268;2022-07-11T06:42:01;1.25;;;0.65;;
15271;SDS011;7737;51.578;7.268;2022-07-11T06:44:27;0.63;;;0.50;;
15271;SDS011;7737;51.578;7.268;2022-07-11T06:46:55;0.95;;;0.50;;
15271;SDS011;7737;51.578;7.268;2022-07-11T06:49:23;3.38;;;0.82;;
15271;SDS011;7737;51.578;7.268;2022-07-11T06:51:50;1.48;;;0.50;;
15271;SDS011;7737;51.578;7.268;2022-07-11T06:54:16;0.55;;;0.43;;
15271;SDS011;7737;51.578;7.268;2022-07-11T06:56:43;1.20;;;0.60;;
15271;SDS011;7737;51.578;7.268;2022-07-11T06:59:09;1.42;;;0.50;;
15271;SDS011;7737;51.578;7.268;2022-07-11T07:01:36;1.50;;;0.80;;
15271;SDS011;7737;51.578;7.268;2022-07-11T07:04:04;1.05;;;0.60;;
15271;SDS011;7737;51.578;7.268;2022-07-11T07:06:30;0.70;;;0.47;;
15271;SDS011;7737;51.578;7.268;2022-07-11T07:08:57;0.80;;;0.50;;
15271;SDS011;7737;51.578;7.268;2022-07-11T07:11:23;0.77;;;0.45;;
15271;SDS011;7737;51.578;7.268;2022-07-11T07:13:50;1.35;;;0.40;;
15271;SDS011;7737;51.578;7.268;2022-07-11T07:16:16;1.48;;;0.60;;
15271;SDS011;7737;51.578;7.268;2022-07-11T07:18:43;1.00;;;0.63;;
15271;SDS011;7737;51.578;7.268;2022-07-11T07:21:12;0.60;;;0.40;;
15271;SDS011;7737;51.578;7.268;2022-07-11T07:23:39;0.80;;;0.50;;
15271;SDS011;7737;51.578;7.268;2022-07-11T07:26:05;0.88;;;0.60;;
15271;SDS011;7737;51.578;7.268;2022-07-11T07:28:32;1.05;;;0.50;;
15271;SDS011;7737;51.578;7.268;2022-07-11T07:30:58;0.95;;;0.75;;
15271;SDS011;7737;51.578;7.268;2022-07-11T07:33:25;2.42;;;0.90;;
15271;SDS011;7737;51.578;7.268;2022-07-11T07:35:51;1.92;;;0.90;;
15271;SDS011;7737;51.578;7.268;2022-07-11T07:38:19;2.50;;;0.82;;
15271;SDS011;7737;51.578;7.268;2022-07-11T07:40:46;1.98;;;0.80;;
15271;SDS011;7737;51.578;7.268;2022-07-11T07:43:12;2.10;;;0.90;;
15271;SDS011;7737;51.578;7.268;2022-07-11T07:45:39;2.17;;;0.82;;
15271;SDS011;7737;51.578;7.268;2022-07-11T07:48:05;3.05;;;1.38;;
15271;SDS011;7737;51.578;7.268;2022-07-11T07:50:32;1.30;;;1.20;;
15271;SDS011;7737;51.578;7.268;2022-07-11T07:52:58;2.15;;;1.70;;
15271;SDS011;7737;51.578;7.268;2022-07-11T07:55:26;2.80;;;1.77;;
15271;SDS011;7737;51.578;7.268;2022-07-11T07:57:53;3.90;;;2.00;;
15271;SDS011;7737;51.578;7.268;2022-07-11T08:00:19;2.22;;;2.03;;
15271;SDS011;7737;51.578;7.268;2022-07-11T08:03:04;2.22;;;2.00;;
15271;SDS011;7737;51.578;7.268;2022-07-11T08:05:31;2.33;;;2.00;;
15271;SDS011;7737;51.578;7.268;2022-07-11T08:07:58;2.13;;;1.85;;
15271;SDS011;7737;51.578;7.268;2022-07-11T08:10:25;1.85;;;1.70;;
15271;SDS011;7737;51.578;7.268;2022-07-11T08:12:53;2.80;;;1.70;;
15271;SDS011;7737;51.578;7.268;2022-07-11T08:15:20;3.08;;;1.85;;
15271;SDS011;7737;51.578;7.268;2022-07-11T08:17:46;1.70;;;1.60;;
15271;SDS011;7737;51.578;7.268;2022-07-11T08:20:13;2.00;;;1.45;;
15271;SDS011;7737;51.578;7.268;2022-07-11T08:22:40;2.58;;;1.70;;
15271;SDS011;7737;51.578;7.268;2022-07-11T08:25:07;1.90;;;1.52;;
15271;SDS011;7737;51.578;7.268;2022-07-11T08:27:35;2.58;;;1.60;;
15271;SDS011;7737;51.578;7.268;2022-07-11T08:30:03;2.92;;;1.40;;
15271;SDS011;7737;51.578;7.268;2022-07-11T08:32:30;3.65;;;1.40;;
15271;SDS011;7737;51.578;7.268;2022-07-11T08:34:57;1.98;;;1.60;;
15271;SDS011;7737;51.578;7.268;2022-07-11T08:37:23;1.30;;;1.17;;
15271;SDS011;7737;51.578;7.268;2022-07-11T08:39:50;2.25;;;1.20;;
15271;SDS011;7737;51.578;7.268;2022-07-11T08:42:18;1.85;;;1.35;;
15271;SDS011;7737;51.578;7.268;2022-07-11T08:44:47;1.80;;;1.10;;
15271;SDS011;7737;51.578;7.268;2022-07-11T08:47:13;1.20;;;1.10;;
15271;SDS011;7737;51.578;7.268;2022-07-11T08:49:41;2.50;;;1.52;;
15271;SDS011;7737;51.578;7.268;2022-07-11T08:52:10;1.23;;;1.13;;
15271;SDS011;7737;51.578;7.268;2022-07-11T08:54:39;2.33;;;1.20;;
15271;SDS011;7737;51.578;7.268;2022-07-11T08:57:05;2.55;;;1.38;;
15271;SDS011;7737;51.578;7.268;2022-07-11T08:59:33;1.67;;;1.15;;
15271;SDS011;7737;51.578;7.268;2022-07-11T09:02:02;1.75;;;1.30;;
15271;SDS011;7737;51.578;7.268;2022-07-11T09:04:31;2.55;;;1.70;;
15271;SDS011;7737;51.578;7.268;2022-07-11T09:06:59;2.33;;;1.80;;
15271;SDS011;7737;51.578;7.268;2022-07-11T09:09:26;2.50;;;2.30;;
15271;SDS011;7737;51.578;7.268;2022-07-11T09:11:53;2.70;;;1.95;;
15271;SDS011;7737;51.578;7.268;2022-07-11T09:14:21;2.58;;;2.38;;
15271;SDS011;7737;51.578;7.268;2022-07-11T09:16:55;2.90;;;2.70;;
15271;SDS011;7737;51.578;7.268;2022-07-11T09:19:25;3.13;;;2.92;;
15271;SDS011;7737;51.578;7.268;2022-07-11T09:22:00;3.10;;;2.80;;
15271;SDS011;7737;51.578;7.268;2022-07-11T09:24:51;2.92;;;2.70;;
15271;SDS011;7737;51.578;7.268;2022-07-11T09:27:41;2.80;;;2.20;;
15271;SDS011;7737;51.578;7.268;2022-07-11T09:30:16;3.20;;;2.60;;
15271;SDS011;7737;51.578;7.268;2022-07-11T09:32:51;3.08;;;2.70;;
15271;SDS011;7737;51.578;7.268;2022-07-11T09:35:20;5.53;;;2.85;;
15271;SDS011;7737;51.578;7.268;2022-07-11T09:37:47;1.70;;;1.60;;
15271;SDS011;7737;51.578;7.268;2022-07-11T09:40:14;2.03;;;1.75;;
15271;SDS011;7737;51.578;7.268;2022-07-11T09:42:45;1.88;;;1.42;;
15271;SDS011;7737;51.578;7.268;2022-07-11T09:45:13;1.73;;;1.60;;
15271;SDS011;7737;51.578;7.268;2022-07-11T09:47:43;1.60;;;1.50;;
15271;SDS011;7737;51.578;7.268;2022-07-11T09:50:10;2.10;;;1.40;;
15271;SDS011;7737;51.578;7.268;2022-07-11T09:52:39;4.18;;;1.80;;
15271;SDS011;7737;51.578;7.268;2022-07-11T09:55:08;2.58;;;1.95;;
15271;SDS011;7737;51.578;7.268;2022-07-11T09:57:35;5.15;;;2.33;;
15271;SDS011;7737;51.578;7.268;2022-07-11T10:00:03;2.30;;;2.10;;
15271;SDS011;7737;51.578;7.268;2022-07-11T10:02:32;1.80;;;1.70;;
15271;SDS011;7737;51.578;7.268;2022-07-11T10:04:58;1.50;;;1.40;;
15271;SDS011;7737;51.578;7.268;2022-07-11T10:07:25;1.58;;;1.20;;
15271;SDS011;7737;51.578;7.268;2022-07-11T10:09:54;1.42;;;1.17;;
15271;SDS011;7737;51.578;7.268;2022-07-11T10:12:20;1.42;;;1.08;;
15271;SDS011;7737;51.578;7.268;2022-07-11T10:14:48;0.93;;;0.68;;
15271;SDS011;7737;51.578;7.268;2022-07-11T10:17:17;0.60;;;0.60;;
15271;SDS011;7737;51.578;7.268;2022-07-11T10:19:50;1.80;;;0.60;;
15271;SDS011;7737;51.578;7.268;2022-07-11T10:22:25;0.50;;;0.40;;
15271;SDS011;7737;51.578;7.268;2022-07-11T10:25:02;0.80;;;0.60;;
15271;SDS011;7737;51.578;7.268;2022-07-11T10:27:39;0.40;;;0.40;;
15271;SDS011;7737;51.578;7.268;2022-07-11T10:30:22;1.45;;;0.50;;
15271;SDS011;7737;51.578;7.268;2022-07-11T10:33:05;0.60;;;0.50;;
15271;SDS011;7737;51.578;7.268;2022-07-11T10:35:34;2.00;;;0.70;;
15271;SDS011;7737;51.578;7.268;2022-07-11T10:38:00;1.23;;;0.50;;
15271;SDS011;7737;51.578;7.268;2022-07-11T10:40:45;0.75;;;0.50;;
15271;SDS011;7737;51.578;7.268;2022-07-11T10:43:14;0.45;;;0.45;;
15271;SDS011;7737;51.578;7.268;2022-07-11T10:45:54;0.75;;;0.50;;
15271;SDS011;7737;51.578;7.268;2022-07-11T10:48:22;1.00;;;0.50;;
15271;SDS011;7737;51.578;7.268;2022-07-11T10:50:53;1.13;;;0.40;;
15271;SDS011;7737;51.578;7.268;2022-07-11T10:53:26;0.82;;;0.70;;
15271;SDS011;7737;51.578;7.268;2022-07-11T10:56:02;0.57;;;0.57;;
15271;SDS011;7737;51.578;7.268;2022-07-11T10:58:40;2.42;;;0.70;;
15271;SDS011;7737;51.578;7.268;2022-07-11T11:01:08;0.52;;;0.40;;
15271;SDS011;7737;51.578;7.268;2022-07-11T11:03:36;0.55;;;0.50;;
15271;SDS011;7737;51.578;7.268;2022-07-11T11:06:03;0.95;;;0.60;;
15271;SDS011;7737;51.578;7.268;2022-07-11T11:08:42;1.20;;;0.60;;
15271;SDS011;7737;51.578;7.268;2022-07-11T11:14:16;1.33;;;0.50;;
15271;SDS011;7737;51.578;7.268;2022-07-11T11:16:44;1.00;;;0.50;;
15271;SDS011;7737;51.578;7.268;2022-07-11T11:22:11;0.73;;;0.60;;
15271;SDS011;7737;51.578;7.268;2022-07-11T11:24:38;0.90;;;0.60;;
15271;SDS011;7737;51.578;7.268;2022-07-11T11:27:07;0.55;;;0.40;;
15271;SDS011;7737;51.578;7.268;2022-07-11T11:29:43;0.30;;;0.30;;
15271;SDS011;7737;51.578;7.268;2022-07-11T11:32:10;1.05;;;0.40;;
15271;SDS011;7737;51.578;7.268;2022-07-11T11:34:38;0.50;;;0.50;;
15271;SDS011;7737;51.578;7.268;2022-07-11T11:37:06;0.55;;;0.30;;
15271;SDS011;7737;51.578;7.268;2022-07-11T11:39:33;1.30;;;0.50;;
15271;SDS011;7737;51.578;7.268;2022-07-11T11:42:01;1.10;;;0.60;;
15271;SDS011;7737;51.578;7.268;2022-07-11T11:44:31;0.95;;;0.60;;
15271;SDS011;7737;51.578;7.268;2022-07-11T11:46:58;1.95;;;0.50;;
15271;SDS011;7737;51.578;7.268;2022-07-11T11:49:24;0.65;;;0.50;;
15271;SDS011;7737;51.578;7.268;2022-07-11T11:51:53;1.45;;;0.45;;
15271;SDS011;7737;51.578;7.268;2022-07-11T11:54:21;0.85;;;0.40;;
15271;SDS011;7737;51.578;7.268;2022-07-11T11:56:49;0.88;;;0.50;;
15271;SDS011;7737;51.578;7.268;2022-07-11T11:59:15;0.60;;;0.50;;
15271;SDS011;7737;51.578;7.268;2022-07-11T12:01:44;1.65;;;0.50;;
15271;SDS011;7737;51.578;7.268;2022-07-11T12:04:12;0.60;;;0.40;;
15271;SDS011;7737;51.578;7.268;2022-07-11T12:06:40;0.93;;;0.60;;
15271;SDS011;7737;51.578;7.268;2022-07-11T12:09:08;1.02;;;0.60;;
15271;SDS011;7737;51.578;7.268;2022-07-11T12:11:36;1.40;;;0.50;;
15271;SDS011;7737;51.578;7.268;2022-07-11T12:14:04;1.40;;;0.98;;
15271;SDS011;7737;51.578;7.268;2022-07-11T12:16:32;0.93;;;0.93;;
15271;SDS011;7737;51.578;7.268;2022-07-11T12:19:09;0.88;;;0.88;;
15271;SDS011;7737;51.578;7.268;2022-07-11T12:21:37;0.90;;;0.90;;
15271;SDS011;7737;51.578;7.268;2022-07-11T12:24:05;1.45;;;0.70;;
15271;SDS011;7737;51.578;7.268;2022-07-11T12:26:34;1.88;;;0.90;;
15271;SDS011;7737;51.578;7.268;2022-07-11T12:29:03;1.52;;;0.80;;
15271;SDS011;7737;51.578;7.268;2022-07-11T12:31:43;0.85;;;0.85;;
15271;SDS011;7737;51.578;7.268;2022-07-11T12:34:13;0.82;;;0.82;;
15271;SDS011;7737;51.578;7.268;2022-07-11T12:36:41;0.80;;;0.80;;
15271;SDS011;7737;51.578;7.268;2022-07-11T12:39:08;1.13;;;0.80;;
15271;SDS011;7737;51.578;7.268;2022-07-11T12:41:35;1.73;;;0.80;;
15271;SDS011;7737;51.578;7.268;2022-07-11T12:44:02;1.00;;;0.70;;
15271;SDS011;7737;51.578;7.268;2022-07-11T12:46:46;1.05;;;0.98;;
15271;SDS011;7737;51.578;7.268;2022-07-11T12:49:17;1.20;;;0.80;;
15271;SDS011;7737;51.578;7.268;2022-07-11T12:51:44;1.05;;;0.98;;
15271;SDS011;7737;51.578;7.268;2022-07-11T12:54:12;1.20;;;1.10;;
15271;SDS011;7737;51.578;7.268;2022-07-11T12:56:40;1.58;;;1.48;;
15271;SDS011;7737;51.578;7.268;2022-07-11T12:59:18;1.20;;;1.10;;
15271;SDS011;7737;51.578;7.268;2022-07-11T13:01:53;1.23;;;1.05;;
15271;SDS011;7737;51.578;7.268;2022-07-11T13:04:29;0.95;;;0.90;;
15271;SDS011;7737;51.578;7.268;2022-07-11T13:06:57;1.42;;;1.00;;
15271;SDS011;7737;51.578;7.268;2022-07-11T13:09:46;0.98;;;0.88;;
15271;SDS011;7737;51.578;7.268;2022-07-11T13:12:12;1.33;;;0.98;;
15271;SDS011;7737;51.578;7.268;2022-07-11T13:14:39;0.70;;;0.70;;
15271;SDS011;7737;51.578;7.268;2022-07-11T13:17:23;1.70;;;1.10;;
15271;SDS011;7737;51.578;7.268;2022-07-11T13:19:51;0.90;;;0.90;;
15271;SDS011;7737;51.578;7.268;2022-07-11T13:22:18;2.63;;;1.00;;
15271;SDS011;7737;51.578;7.268;2022-07-11T13:24:49;1.75;;;1.05;;
15271;SDS011;7737;51.578;7.268;2022-07-11T13:27:16;1.33;;;0.98;;
15271;SDS011;7737;51.578;7.268;2022-07-11T13:29:42;1.38;;;1.27;;
15271;SDS011;7737;51.578;7.268;2022-07-11T13:32:10;2.00;;;1.25;;
15271;SDS011;7737;51.578;7.268;2022-07-11T13:34:36;2.13;;;1.30;;
15271;SDS011;7737;51.578;7.268;2022-07-11T13:37:04;1.80;;;1.63;;
15271;SDS011;7737;51.578;7.268;2022-07-11T13:39:31;1.52;;;1.42;;
15271;SDS011;7737;51.578;7.268;2022-07-11T13:41:57;1.15;;;1.10;;
15271;SDS011;7737;51.578;7.268;2022-07-11T13:44:24;2.65;;;1.67;;
15271;SDS011;7737;51.578;7.268;2022-07-11T13:46:51;1.60;;;1.50;;
15271;SDS011;7737;51.578;7.268;2022-07-11T13:49:17;1.90;;;1.33;;
15271;SDS011;7737;51.578;7.268;2022-07-11T13:51:44;1.30;;;1.20;;
15271;SDS011;7737;51.578;7.268;2022-07-11T13:54:12;1.65;;;1.00;;
15271;SDS011;7737;51.578;7.268;2022-07-11T13:56:38;1.08;;;1.00;;
15271;SDS011;7737;51.578;7.268;2022-07-11T13:59:04;0.85;;;0.85;;
15271;SDS011;7737;51.578;7.268;2022-07-11T14:01:31;1.60;;;0.80;;
15271;SDS011;7737;51.578;7.268;2022-07-11T14:03:57;0.60;;;0.55;;
15271;SDS011;7737;51.578;7.268;2022-07-11T14:06:24;0.60;;;0.60;;
15271;SDS011;7737;51.578;7.268;2022-07-11T14:08:50;2.60;;;0.70;;
15271;SDS011;7737;51.578;7.268;2022-07-11T14:11:18;0.80;;;0.80;;
15271;SDS011;7737;51.578;7.268;2022-07-11T14:13:45;1.27;;;0.90;;
15271;SDS011;7737;51.578;7.268;2022-07-11T14:16:12;0.80;;;0.80;;
15271;SDS011;7737;51.578;7.268;2022-07-11T14:18:39;0.82;;;0.80;;
15271;SDS011;7737;51.578;7.268;2022-07-11T14:21:06;1.30;;;0.90;;
15271;SDS011;7737;51.578;7.268;2022-07-11T14:23:33;1.58;;;0.70;;
15271;SDS011;7737;51.578;7.268;2022-07-11T14:25:59;0.90;;;0.90;;
15271;SDS011;7737;51.578;7.268;2022-07-11T14:28:27;1.95;;;0.90;;
15271;SDS011;7737;51.578;7.268;2022-07-11T14:30:54;1.20;;;0.90;;
15271;SDS011;7737;51.578;7.268;2022-07-11T14:33:21;2.15;;;1.38;;
15271;SDS011;7737;51.578;7.268;2022-07-11T14:35:47;1.73;;;1.63;;
15271;SDS011;7737;51.578;7.268;2022-07-11T14:38:14;1.25;;;1.15;;
15271;SDS011;7737;51.578;7.268;2022-07-11T14:40:40;1.75;;;1.45;;
15271;SDS011;7737;51.578;7.268;2022-07-11T14:43:07;1.50;;;1.40;;
15271;SDS011;7737;51.578;7.268;2022-07-11T14:45:34;1.20;;;1.08;;
15271;SDS011;7737;51.578;7.268;2022-07-11T14:48:01;1.33;;;0.90;;
15271;SDS011;7737;51.578;7.268;2022-07-11T14:50:28;0.80;;;0.80;;
15271;SDS011;7737;51.578;7.268;2022-07-11T14:52:54;0.88;;;0.80;;
15271;SDS011;7737;51.578;7.268;2022-07-11T14:55:21;0.95;;;0.88;;
15271;SDS011;7737;51.578;7.268;2022-07-11T14:57:48;0.60;;;0.60;;
15271;SDS011;7737;51.578;7.268;2022-07-11T15:00:15;0.85;;;0.65;;
15271;SDS011;7737;51.578;7.268;2022-07-11T15:02:46;0.40;;;0.40;;
15271;SDS011;7737;51.578;7.268;2022-07-11T15:05:26;1.10;;;0.60;;
15271;SDS011;7737;51.578;7.268;2022-07-11T15:07:52;0.43;;;0.40;;
15271;SDS011;7737;51.578;7.268;2022-07-11T15:10:37;1.27;;;0.50;;
15271;SDS011;7737;51.578;7.268;2022-07-11T15:13:21;0.68;;;0.47;;